sensor_id;sensor_type;location;lat;lon;timestamp;temperature;humidity
45807;DHT22;31507;51.494;7.518;2023-12-04T00:02:10;0.00;99.90
45807;DHT22;31507;51.494;7.518;2023-12-04T00:04:36;0.00;99.90
45807;DHT22;31507;51.494;7.518;2023-12-04T00:07:04;0.00;99.90
45807;DHT22;31507;51.494;7.518;2023-12-04T00:09:29;-0.10;99.90
45807;DHT22;31507;51.494;7.518;2023-12-04T00:11:55;-0.10;99.90
45807;DHT22;31507;51.494;7.518;2023-12-04T00:14:21;-0.10;99.90
45807;DHT22;31507;51.494;7.518;2023-12-04T00:16:47;0.00;99.90
45807;DHT22;31507;51.494;7.518;2023-12-04T00:19:13;0.00;99.90
45807;DHT22;31507;51.494;7.518;2023-12-04T00:21:38;0.00;99.90
45807;DHT22;31507;51.494;7.518;2023-12-04T00:24:04;0.00;99.90
45807;DHT22;31507;51.494;7.518;2023-12-04T00:26:30;0.00;99.90
45807;DHT22;31507;51.494;7.518;2023-12-04T00:28:55;0.00;99.90
45807;DHT22;31507;51.494;7.518;2023-12-04T00:31:21;0.00;99.90
45807;DHT22;31507;51.494;7.518;2023-12-04T00:33:47;0.00;99.90
45807;DHT22;31507;51.494;7.518;2023-12-04T00:36:13;0.00;99.90
45807;DHT22;31507;51.494;7.518;2023-12-04T00:38:40;0.00;99.90
45807;DHT22;31507;51.494;7.518;2023-12-04T00:41:05;0.00;99.90
45807;DHT22;31507;51.494;7.518;2023-12-04T00:43:31;0.00;99.90
45807;DHT22;31507;51.494;7.518;2023-12-04T00:45:56;0.10;99.90
45807;DHT22;31507;51.494;7.518;2023-12-04T00:48:22;0.10;99.90
45807;DHT22;31507;51.494;7.518;2023-12-04T00:50:47;0.10;99.90
45807;DHT22;31507;51.494;7.518;2023-12-04T00:53:13;0.10;99.90
45807;DHT22;31507;51.494;7.518;2023-12-04T00:55:39;0.10;99.90
45807;DHT22;31507;51.494;7.518;2023-12-04T00:58:04;0.20;99.90
45807;DHT22;31507;51.494;7.518;2023-12-04T01:00:30;0.20;99.90
45807;DHT22;31507;51.494;7.518;2023-12-04T01:02:55;0.20;99.90
45807;DHT22;31507;51.494;7.518;2023-12-04T01:05:20;0.20;99.90
45807;DHT22;31507;51.494;7.518;2023-12-04T01:07:46;0.30;99.90
45807;DHT22;31507;51.494;7.518;2023-12-04T01:10:11;0.20;99.90
45807;DHT22;31507;51.494;7.518;2023-12-04T01:12:37;0.30;99.90
45807;DHT22;31507;51.494;7.518;2023-12-04T01:15:03;0.30;99.90
45807;DHT22;31507;51.494;7.518;2023-12-04T01:17:28;0.30;99.90
45807;DHT22;31507;51.494;7.518;2023-12-04T01:19:54;0.30;99.90
45807;DHT22;31507;51.494;7.518;2023-12-04T01:22:19;0.30;99.90
45807;DHT22;31507;51.494;7.518;2023-12-04T01:24:45;0.30;99.90
45807;DHT22;31507;51.494;7.518;2023-12-04T01:27:10;0.40;99.90
45807;DHT22;31507;51.494;7.518;2023-12-04T01:29:36;0.40;99.90
45807;DHT22;31507;51.494;7.518;2023-12-04T01:32:01;0.40;99.90
45807;DHT22;31507;51.494;7.518;2023-12-04T01:34:27;0.30;99.90
45807;DHT22;31507;51.494;7.518;2023-12-04T01:36:53;0.30;99.90
45807;DHT22;31507;51.494;7.518;2023-12-04T01:39:18;0.30;99.90
45807;DHT22;31507;51.494;7.518;2023-12-04T01:41:44;0.30;99.90
45807;DHT22;31507;51.494;7.518;2023-12-04T01:44:10;0.30;99.90
45807;DHT22;31507;51.494;7.518;2023-12-04T01:46:36;0.30;99.90
45807;DHT22;31507;51.494;7.518;2023-12-04T01:49:02;0.40;99.90
45807;DHT22;31507;51.494;7.518;2023-12-04T01:51:29;0.40;99.90
45807;DHT22;31507;51.494;7.518;2023-12-04T01:54:03;0.40;98.10
45807;DHT22;31507;51.494;7.518;2023-12-04T01:56:30;0.40;99.90
45807;DHT22;31507;51.494;7.518;2023-12-04T01:58:55;0.50;98.70
45807;DHT22;31507;51.494;7.518;2023-12-04T02:01:21;0.40;99.10
45807;DHT22;31507;51.494;7.518;2023-12-04T02:03:47;0.50;97.60
45807;DHT22;31507;51.494;7.518;2023-12-04T02:06:13;0.50;99.90
45807;DHT22;31507;51.494;7.518;2023-12-04T02:08:42;0.50;97.50
45807;DHT22;31507;51.494;7.518;2023-12-04T02:11:08;0.40;93.80
45807;DHT22;31507;51.494;7.518;2023-12-04T02:13:34;0.40;96.30
45807;DHT22;31507;51.494;7.518;2023-12-04T02:16:01;0.40;93.40
45807;DHT22;31507;51.494;7.518;2023-12-04T02:18:28;0.40;97.90
45807;DHT22;31507;51.494;7.518;2023-12-04T02:20:54;0.40;90.80
45807;DHT22;31507;51.494;7.518;2023-12-04T02:23:19;0.40;92.60
45807;DHT22;31507;51.494;7.518;2023-12-04T02:25:45;0.30;91.40
45807;DHT22;31507;51.494;7.518;2023-12-04T02:28:11;0.30;96.80
45807;DHT22;31507;51.494;7.518;2023-12-04T02:30:38;0.40;93.30
45807;DHT22;31507;51.494;7.518;2023-12-04T02:33:06;0.40;92.50
45807;DHT22;31507;51.494;7.518;2023-12-04T02:35:33;0.40;90.30
45807;DHT22;31507;51.494;7.518;2023-12-04T02:38:02;0.50;79.50
45807;DHT22;31507;51.494;7.518;2023-12-04T02:40:27;0.50;78.30
45807;DHT22;31507;51.494;7.518;2023-12-04T02:42:53;0.50;76.30
45807;DHT22;31507;51.494;7.518;2023-12-04T02:45:19;0.60;72.10
45807;DHT22;31507;51.494;7.518;2023-12-04T02:47:44;0.60;72.10
45807;DHT22;31507;51.494;7.518;2023-12-04T02:50:10;0.70;72.00
45807;DHT22;31507;51.494;7.518;2023-12-04T02:52:35;0.70;66.90
45807;DHT22;31507;51.494;7.518;2023-12-04T02:55:01;0.80;57.30
45807;DHT22;31507;51.494;7.518;2023-12-04T02:57:26;0.80;57.80
45807;DHT22;31507;51.494;7.518;2023-12-04T02:59:52;0.90;58.90
45807;DHT22;31507;51.494;7.518;2023-12-04T03:02:17;0.90;51.20
45807;DHT22;31507;51.494;7.518;2023-12-04T03:04:43;0.90;49.10
45807;DHT22;31507;51.494;7.518;2023-12-04T03:07:08;0.90;43.90
45807;DHT22;31507;51.494;7.518;2023-12-04T03:09:34;0.90;42.10
45807;DHT22;31507;51.494;7.518;2023-12-04T03:11:59;1.00;48.50
45807;DHT22;31507;51.494;7.518;2023-12-04T03:14:25;1.00;37.00
45807;DHT22;31507;51.494;7.518;2023-12-04T03:16:52;1.00;43.00
45807;DHT22;31507;51.494;7.518;2023-12-04T03:19:17;1.00;39.40
45807;DHT22;31507;51.494;7.518;2023-12-04T03:21:43;1.00;34.20
45807;DHT22;31507;51.494;7.518;2023-12-04T03:24:08;1.00;32.50
45807;DHT22;31507;51.494;7.518;2023-12-04T03:26:34;1.00;32.00
45807;DHT22;31507;51.494;7.518;2023-12-04T03:29:00;0.90;33.00
45807;DHT22;31507;51.494;7.518;2023-12-04T03:31:26;0.90;30.80
45807;DHT22;31507;51.494;7.518;2023-12-04T03:33:51;0.90;29.40
45807;DHT22;31507;51.494;7.518;2023-12-04T03:36:17;0.90;37.50
45807;DHT22;31507;51.494;7.518;2023-12-04T03:38:42;0.90;33.40
45807;DHT22;31507;51.494;7.518;2023-12-04T03:41:15;0.90;28.90
45807;DHT22;31507;51.494;7.518;2023-12-04T03:43:40;0.90;28.00
45807;DHT22;31507;51.494;7.518;2023-12-04T03:46:06;0.90;28.40
45807;DHT22;31507;51.494;7.518;2023-12-04T03:48:32;1.00;29.30
45807;DHT22;31507;51.494;7.518;2023-12-04T03:50:57;1.00;21.80
45807;DHT22;31507;51.494;7.518;2023-12-04T03:53:23;1.00;23.10
45807;DHT22;31507;51.494;7.518;2023-12-04T03:55:48;1.00;22.40
45807;DHT22;31507;51.494;7.518;2023-12-04T03:58:14;1.00;24.40
45807;DHT22;31507;51.494;7.518;2023-12-04T04:00:39;1.10;24.80
45807;DHT22;31507;51.494;7.518;2023-12-04T04:03:09;1.00;21.30
45807;DHT22;31507;51.494;7.518;2023-12-04T04:05:34;1.10;26.10
45807;DHT22;31507;51.494;7.518;2023-12-04T04:08:00;1.10;22.90
45807;DHT22;31507;51.494;7.518;2023-12-04T04:10:25;1.20;20.50
45807;DHT22;31507;51.494;7.518;2023-12-04T04:12:51;1.20;23.10
45807;DHT22;31507;51.494;7.518;2023-12-04T04:15:16;1.20;20.70
45807;DHT22;31507;51.494;7.518;2023-12-04T04:17:42;1.20;22.50
45807;DHT22;31507;51.494;7.518;2023-12-04T04:20:07;1.20;19.10
45807;DHT22;31507;51.494;7.518;2023-12-04T04:22:33;1.20;22.20
45807;DHT22;31507;51.494;7.518;2023-12-04T04:25:04;1.30;22.60
45807;DHT22;31507;51.494;7.518;2023-12-04T04:27:29;1.20;21.90
45807;DHT22;31507;51.494;7.518;2023-12-04T04:29:55;1.20;24.30
45807;DHT22;31507;51.494;7.518;2023-12-04T04:32:20;1.20;19.80
45807;DHT22;31507;51.494;7.518;2023-12-04T04:34:46;1.20;17.60
45807;DHT22;31507;51.494;7.518;2023-12-04T04:37:12;1.30;20.10
45807;DHT22;31507;51.494;7.518;2023-12-04T04:39:39;1.20;19.40
45807;DHT22;31507;51.494;7.518;2023-12-04T04:42:04;1.20;18.80
45807;DHT22;31507;51.494;7.518;2023-12-04T04:44:30;1.20;19.30
45807;DHT22;31507;51.494;7.518;2023-12-04T04:46:56;1.20;20.40
45807;DHT22;31507;51.494;7.518;2023-12-04T04:49:21;1.20;22.30
45807;DHT22;31507;51.494;7.518;2023-12-04T04:51:47;1.20;20.80
45807;DHT22;31507;51.494;7.518;2023-12-04T04:54:12;1.10;22.30
45807;DHT22;31507;51.494;7.518;2023-12-04T04:56:38;1.10;23.30
45807;DHT22;31507;51.494;7.518;2023-12-04T04:59:03;1.10;22.50
45807;DHT22;31507;51.494;7.518;2023-12-04T05:01:29;1.00;18.60
45807;DHT22;31507;51.494;7.518;2023-12-04T05:03:54;1.00;21.50
45807;DHT22;31507;51.494;7.518;2023-12-04T05:06:20;1.00;24.50
45807;DHT22;31507;51.494;7.518;2023-12-04T05:08:47;1.00;18.60
45807;DHT22;31507;51.494;7.518;2023-12-04T05:11:16;1.00;19.40
45807;DHT22;31507;51.494;7.518;2023-12-04T05:13:41;1.00;17.50
45807;DHT22;31507;51.494;7.518;2023-12-04T05:16:07;1.10;18.80
45807;DHT22;31507;51.494;7.518;2023-12-04T05:18:33;1.10;16.30
45807;DHT22;31507;51.494;7.518;2023-12-04T05:20:58;1.10;16.70
45807;DHT22;31507;51.494;7.518;2023-12-04T05:23:24;1.20;16.60
45807;DHT22;31507;51.494;7.518;2023-12-04T05:25:49;1.20;16.60
45807;DHT22;31507;51.494;7.518;2023-12-04T05:28:15;1.20;17.10
45807;DHT22;31507;51.494;7.518;2023-12-04T05:30:40;1.30;17.10
45807;DHT22;31507;51.494;7.518;2023-12-04T05:33:06;1.30;17.30
45807;DHT22;31507;51.494;7.518;2023-12-04T05:35:31;1.30;13.80
45807;DHT22;31507;51.494;7.518;2023-12-04T05:38:01;1.40;13.80
45807;DHT22;31507;51.494;7.518;2023-12-04T05:40:27;1.40;13.00
45807;DHT22;31507;51.494;7.518;2023-12-04T05:42:52;1.40;12.90
45807;DHT22;31507;51.494;7.518;2023-12-04T05:45:18;1.40;14.10
45807;DHT22;31507;51.494;7.518;2023-12-04T05:47:44;1.40;11.00
45807;DHT22;31507;51.494;7.518;2023-12-04T05:50:09;1.40;11.40
45807;DHT22;31507;51.494;7.518;2023-12-04T05:52:35;1.40;11.30
45807;DHT22;31507;51.494;7.518;2023-12-04T05:55:00;1.50;11.10
45807;DHT22;31507;51.494;7.518;2023-12-04T05:57:26;1.60;12.10
45807;DHT22;31507;51.494;7.518;2023-12-04T05:59:51;1.60;13.10
45807;DHT22;31507;51.494;7.518;2023-12-04T06:02:17;1.60;7.90
45807;DHT22;31507;51.494;7.518;2023-12-04T06:04:42;1.60;13.50
45807;DHT22;31507;51.494;7.518;2023-12-04T06:07:08;1.60;9.90
45807;DHT22;31507;51.494;7.518;2023-12-04T06:09:34;1.60;10.20
45807;DHT22;31507;51.494;7.518;2023-12-04T06:12:02;1.50;10.50
45807;DHT22;31507;51.494;7.518;2023-12-04T06:14:33;1.50;14.60
45807;DHT22;31507;51.494;7.518;2023-12-04T06:16:58;1.50;13.70
45807;DHT22;31507;51.494;7.518;2023-12-04T06:19:24;1.50;11.50
45807;DHT22;31507;51.494;7.518;2023-12-04T06:21:49;1.50;10.70
45807;DHT22;31507;51.494;7.518;2023-12-04T06:24:15;1.50;12.60
45807;DHT22;31507;51.494;7.518;2023-12-04T06:26:41;1.50;10.80
45807;DHT22;31507;51.494;7.518;2023-12-04T06:29:07;1.50;10.80
45807;DHT22;31507;51.494;7.518;2023-12-04T06:31:32;1.50;8.60
45807;DHT22;31507;51.494;7.518;2023-12-04T06:33:58;1.50;9.00
45807;DHT22;31507;51.494;7.518;2023-12-04T06:36:23;1.40;7.90
45807;DHT22;31507;51.494;7.518;2023-12-04T06:38:49;1.40;6.90
45807;DHT22;31507;51.494;7.518;2023-12-04T06:41:17;1.50;6.60
45807;DHT22;31507;51.494;7.518;2023-12-04T06:43:44;1.40;6.90
45807;DHT22;31507;51.494;7.518;2023-12-04T06:46:09;1.40;6.50
45807;DHT22;31507;51.494;7.518;2023-12-04T06:48:36;1.40;7.70
45807;DHT22;31507;51.494;7.518;2023-12-04T06:51:02;1.40;10.80
45807;DHT22;31507;51.494;7.518;2023-12-04T06:53:27;1.30;8.80
45807;DHT22;31507;51.494;7.518;2023-12-04T06:55:53;1.20;8.00
45807;DHT22;31507;51.494;7.518;2023-12-04T06:58:18;1.20;7.10
45807;DHT22;31507;51.494;7.518;2023-12-04T07:00:44;1.10;8.10
45807;DHT22;31507;51.494;7.518;2023-12-04T07:03:09;1.10;8.00
45807;DHT22;31507;51.494;7.518;2023-12-04T07:05:35;1.10;7.80
45807;DHT22;31507;51.494;7.518;2023-12-04T07:08:00;1.10;5.20
45807;DHT22;31507;51.494;7.518;2023-12-04T07:10:26;1.10;6.70
45807;DHT22;31507;51.494;7.518;2023-12-04T07:12:54;1.10;4.50
45807;DHT22;31507;51.494;7.518;2023-12-04T07:15:20;1.20;4.70
45807;DHT22;31507;51.494;7.518;2023-12-04T07:17:45;1.20;2.20
45807;DHT22;31507;51.494;7.518;2023-12-04T07:20:11;1.30;5.30
45807;DHT22;31507;51.494;7.518;2023-12-04T07:22:37;1.40;1.00
45807;DHT22;31507;51.494;7.518;2023-12-04T07:25:02;1.40;4.30
45807;DHT22;31507;51.494;7.518;2023-12-04T07:27:28;1.50;2.00
45807;DHT22;31507;51.494;7.518;2023-12-04T07:29:53;1.60;1.00
45807;DHT22;31507;51.494;7.518;2023-12-04T07:32:19;1.70;1.00
45807;DHT22;31507;51.494;7.518;2023-12-04T07:34:45;1.70;1.00
45807;DHT22;31507;51.494;7.518;2023-12-04T07:37:10;1.60;1.00
45807;DHT22;31507;51.494;7.518;2023-12-04T07:39:36;1.70;1.00
45807;DHT22;31507;51.494;7.518;2023-12-04T07:42:01;1.70;1.00
45807;DHT22;31507;51.494;7.518;2023-12-04T07:44:27;1.70;1.00
45807;DHT22;31507;51.494;7.518;2023-12-04T07:46:52;1.70;1.00
45807;DHT22;31507;51.494;7.518;2023-12-04T07:49:18;1.70;1.00
45807;DHT22;31507;51.494;7.518;2023-12-04T07:51:44;1.70;5.80
45807;DHT22;31507;51.494;7.518;2023-12-04T07:54:09;1.70;1.00
45807;DHT22;31507;51.494;7.518;2023-12-04T07:56:35;1.70;1.00
45807;DHT22;31507;51.494;7.518;2023-12-04T07:59:00;1.70;3.20
45807;DHT22;31507;51.494;7.518;2023-12-04T08:01:26;1.70;1.00
45807;DHT22;31507;51.494;7.518;2023-12-04T08:03:51;1.70;1.00
45807;DHT22;31507;51.494;7.518;2023-12-04T08:06:17;1.70;6.90
45807;DHT22;31507;51.494;7.518;2023-12-04T08:08:44;1.70;5.70
45807;DHT22;31507;51.494;7.518;2023-12-04T08:11:10;1.80;10.60
45807;DHT22;31507;51.494;7.518;2023-12-04T08:13:36;1.80;1.00
45807;DHT22;31507;51.494;7.518;2023-12-04T08:16:03;1.90;1.00
45807;DHT22;31507;51.494;7.518;2023-12-04T08:18:28;1.90;7.90
45807;DHT22;31507;51.494;7.518;2023-12-04T08:20:54;1.90;1.40
45807;DHT22;31507;51.494;7.518;2023-12-04T08:23:19;1.90;7.40
45807;DHT22;31507;51.494;7.518;2023-12-04T08:25:45;1.90;12.00
45807;DHT22;31507;51.494;7.518;2023-12-04T08:28:11;1.90;2.90
45807;DHT22;31507;51.494;7.518;2023-12-04T08:30:36;1.90;3.30
45807;DHT22;31507;51.494;7.518;2023-12-04T08:33:02;1.90;5.90
45807;DHT22;31507;51.494;7.518;2023-12-04T08:35:27;1.90;2.20
45807;DHT22;31507;51.494;7.518;2023-12-04T08:37:53;1.90;1.00
45807;DHT22;31507;51.494;7.518;2023-12-04T08:40:19;1.90;5.70
45807;DHT22;31507;51.494;7.518;2023-12-04T08:42:44;1.90;2.20
45807;DHT22;31507;51.494;7.518;2023-12-04T08:45:10;1.90;1.00
45807;DHT22;31507;51.494;7.518;2023-12-04T08:47:36;2.00;1.00
45807;DHT22;31507;51.494;7.518;2023-12-04T08:50:02;2.00;1.00
45807;DHT22;31507;51.494;7.518;2023-12-04T08:52:27;2.00;1.00
45807;DHT22;31507;51.494;7.518;2023-12-04T08:54:53;2.00;1.00
45807;DHT22;31507;51.494;7.518;2023-12-04T08:57:19;2.00;4.50
45807;DHT22;31507;51.494;7.518;2023-12-04T08:59:45;2.00;1.00
45807;DHT22;31507;51.494;7.518;2023-12-04T09:02:11;2.00;1.00
45807;DHT22;31507;51.494;7.518;2023-12-04T09:04:36;2.10;1.00
45807;DHT22;31507;51.494;7.518;2023-12-04T09:07:02;2.10;1.00
45807;DHT22;31507;51.494;7.518;2023-12-04T09:09:28;2.10;4.00
45807;DHT22;31507;51.494;7.518;2023-12-04T09:11:54;2.10;1.00
45807;DHT22;31507;51.494;7.518;2023-12-04T09:14:19;2.20;1.00
45807;DHT22;31507;51.494;7.518;2023-12-04T09:16:45;2.20;1.00
45807;DHT22;31507;51.494;7.518;2023-12-04T09:19:10;2.20;5.70
45807;DHT22;31507;51.494;7.518;2023-12-04T09:21:36;2.30;1.00
45807;DHT22;31507;51.494;7.518;2023-12-04T09:24:01;2.30;1.00
45807;DHT22;31507;51.494;7.518;2023-12-04T09:26:27;2.40;1.00
45807;DHT22;31507;51.494;7.518;2023-12-04T09:28:53;2.40;2.90
45807;DHT22;31507;51.494;7.518;2023-12-04T09:31:19;2.40;1.00
45807;DHT22;31507;51.494;7.518;2023-12-04T09:33:45;2.40;1.00
45807;DHT22;31507;51.494;7.518;2023-12-04T09:36:10;2.40;1.00
45807;DHT22;31507;51.494;7.518;2023-12-04T09:38:36;2.50;1.00
45807;DHT22;31507;51.494;7.518;2023-12-04T09:41:02;2.40;1.00
45807;DHT22;31507;51.494;7.518;2023-12-04T09:43:30;2.40;1.00
45807;DHT22;31507;51.494;7.518;2023-12-04T09:45:56;2.40;4.00
45807;DHT22;31507;51.494;7.518;2023-12-04T09:48:23;2.40;1.00
45807;DHT22;31507;51.494;7.518;2023-12-04T09:50:49;2.40;1.00
45807;DHT22;31507;51.494;7.518;2023-12-04T09:53:15;2.50;1.00
45807;DHT22;31507;51.494;7.518;2023-12-04T09:55:41;2.50;1.00
45807;DHT22;31507;51.494;7.518;2023-12-04T09:58:06;2.50;1.00
45807;DHT22;31507;51.494;7.518;2023-12-04T10:00:32;2.50;1.30
45807;DHT22;31507;51.494;7.518;2023-12-04T10:02:58;2.50;2.90
45807;DHT22;31507;51.494;7.518;2023-12-04T10:05:25;2.60;1.00
45807;DHT22;31507;51.494;7.518;2023-12-04T10:07:50;2.60;1.00
45807;DHT22;31507;51.494;7.518;2023-12-04T10:10:16;2.60;1.00
45807;DHT22;31507;51.494;7.518;2023-12-04T10:12:42;2.60;1.00
45807;DHT22;31507;51.494;7.518;2023-12-04T10:15:08;2.60;1.00
45807;DHT22;31507;51.494;7.518;2023-12-04T10:17:34;2.60;3.50
45807;DHT22;31507;51.494;7.518;2023-12-04T10:22:38;2.60;2.10
45807;DHT22;31507;51.494;7.518;2023-12-04T10:25:13;2.60;1.00
45807;DHT22;31507;51.494;7.518;2023-12-04T10:27:39;2.60;1.00
45807;DHT22;31507;51.494;7.518;2023-12-04T10:30:05;2.70;1.00
45807;DHT22;31507;51.494;7.518;2023-12-04T10:32:36;2.70;3.00
45807;DHT22;31507;51.494;7.518;2023-12-04T10:35:02;2.70;2.80
45807;DHT22;31507;51.494;7.518;2023-12-04T10:37:29;2.70;2.20
45807;DHT22;31507;51.494;7.518;2023-12-04T10:39:54;2.80;1.00
45807;DHT22;31507;51.494;7.518;2023-12-04T10:42:26;2.80;1.40
45807;DHT22;31507;51.494;7.518;2023-12-04T10:44:54;2.90;1.20
45807;DHT22;31507;51.494;7.518;2023-12-04T10:47:20;2.90;3.20
45807;DHT22;31507;51.494;7.518;2023-12-04T10:49:48;3.00;2.40
45807;DHT22;31507;51.494;7.518;2023-12-04T10:52:14;3.00;5.90
45807;DHT22;31507;51.494;7.518;2023-12-04T10:54:39;3.00;4.10
45807;DHT22;31507;51.494;7.518;2023-12-04T10:57:05;3.00;1.80
45807;DHT22;31507;51.494;7.518;2023-12-04T10:59:32;3.00;2.60
45807;DHT22;31507;51.494;7.518;2023-12-04T11:02:01;3.10;1.30
45807;DHT22;31507;51.494;7.518;2023-12-04T11:04:28;3.10;1.00
45807;DHT22;31507;51.494;7.518;2023-12-04T11:06:56;3.10;1.00
45807;DHT22;31507;51.494;7.518;2023-12-04T11:09:24;3.10;1.90
45807;DHT22;31507;51.494;7.518;2023-12-04T11:11:53;3.10;4.40
45807;DHT22;31507;51.494;7.518;2023-12-04T11:14:22;3.00;6.20
45807;DHT22;31507;51.494;7.518;2023-12-04T11:16:49;3.00;4.50
45807;DHT22;31507;51.494;7.518;2023-12-04T11:19:59;2.90;3.40
45807;DHT22;31507;51.494;7.518;2023-12-04T11:22:04;2.90;5.40
45807;DHT22;31507;51.494;7.518;2023-12-04T11:24:32;2.90;13.00
45807;DHT22;31507;51.494;7.518;2023-12-04T11:26:58;2.90;11.40
45807;DHT22;31507;51.494;7.518;2023-12-04T11:29:23;2.90;10.80
45807;DHT22;31507;51.494;7.518;2023-12-04T11:31:49;2.90;13.00
45807;DHT22;31507;51.494;7.518;2023-12-04T11:34:15;2.90;23.20
45807;DHT22;31507;51.494;7.518;2023-12-04T11:36:40;2.80;16.60
45807;DHT22;31507;51.494;7.518;2023-12-04T11:39:09;2.80;10.90
45807;DHT22;31507;51.494;7.518;2023-12-04T11:41:37;2.90;14.20
45807;DHT22;31507;51.494;7.518;2023-12-04T11:44:03;2.80;14.00
45807;DHT22;31507;51.494;7.518;2023-12-04T11:46:29;2.80;13.40
45807;DHT22;31507;51.494;7.518;2023-12-04T11:48:56;2.70;14.00
45807;DHT22;31507;51.494;7.518;2023-12-04T11:54:17;2.70;15.30
45807;DHT22;31507;51.494;7.518;2023-12-04T11:59:27;2.70;23.00
45807;DHT22;31507;51.494;7.518;2023-12-04T12:01:54;2.60;23.90
45807;DHT22;31507;51.494;7.518;2023-12-04T12:04:20;2.60;23.20
45807;DHT22;31507;51.494;7.518;2023-12-04T12:06:46;2.60;33.20
45807;DHT22;31507;51.494;7.518;2023-12-04T12:09:12;2.60;33.10
45807;DHT22;31507;51.494;7.518;2023-12-04T12:11:37;2.50;33.90
45807;DHT22;31507;51.494;7.518;2023-12-04T12:14:04;2.50;36.70
45807;DHT22;31507;51.494;7.518;2023-12-04T12:16:33;2.50;56.80
45807;DHT22;31507;51.494;7.518;2023-12-04T12:19:00;2.50;48.60
45807;DHT22;31507;51.494;7.518;2023-12-04T12:21:26;2.50;45.00
45807;DHT22;31507;51.494;7.518;2023-12-04T12:23:51;2.50;49.50
45807;DHT22;31507;51.494;7.518;2023-12-04T12:26:17;2.50;49.40
45807;DHT22;31507;51.494;7.518;2023-12-04T12:28:42;2.50;53.40
45807;DHT22;31507;51.494;7.518;2023-12-04T12:31:08;2.50;54.70
45807;DHT22;31507;51.494;7.518;2023-12-04T12:33:33;2.50;63.90
45807;DHT22;31507;51.494;7.518;2023-12-04T12:35:59;2.50;62.50
45807;DHT22;31507;51.494;7.518;2023-12-04T12:38:25;2.50;68.10
45807;DHT22;31507;51.494;7.518;2023-12-04T12:40:51;2.50;68.50
45807;DHT22;31507;51.494;7.518;2023-12-04T12:43:16;2.60;70.20
45807;DHT22;31507;51.494;7.518;2023-12-04T12:45:46;2.60;70.30
45807;DHT22;31507;51.494;7.518;2023-12-04T12:48:13;2.70;63.70
45807;DHT22;31507;51.494;7.518;2023-12-04T12:50:39;2.70;72.80
45807;DHT22;31507;51.494;7.518;2023-12-04T12:53:05;2.70;72.30
45807;DHT22;31507;51.494;7.518;2023-12-04T12:55:30;2.70;76.20
45807;DHT22;31507;51.494;7.518;2023-12-04T12:57:57;2.70;79.50
45807;DHT22;31507;51.494;7.518;2023-12-04T13:00:23;2.70;78.60
45807;DHT22;31507;51.494;7.518;2023-12-04T13:02:52;2.70;84.40
45807;DHT22;31507;51.494;7.518;2023-12-04T13:05:18;2.70;80.50
45807;DHT22;31507;51.494;7.518;2023-12-04T13:07:45;2.60;75.70
45807;DHT22;31507;51.494;7.518;2023-12-04T13:10:14;2.70;82.70
45807;DHT22;31507;51.494;7.518;2023-12-04T13:12:39;2.60;86.40
45807;DHT22;31507;51.494;7.518;2023-12-04T13:15:05;2.50;85.20
45807;DHT22;31507;51.494;7.518;2023-12-04T13:17:31;2.50;86.50
45807;DHT22;31507;51.494;7.518;2023-12-04T13:19:57;2.50;87.60
45807;DHT22;31507;51.494;7.518;2023-12-04T13:22:23;2.40;89.10
45807;DHT22;31507;51.494;7.518;2023-12-04T13:24:49;2.30;93.70
45807;DHT22;31507;51.494;7.518;2023-12-04T13:27:15;2.30;95.60
45807;DHT22;31507;51.494;7.518;2023-12-04T13:29:40;2.30;94.10
45807;DHT22;31507;51.494;7.518;2023-12-04T13:32:08;2.20;95.90
45807;DHT22;31507;51.494;7.518;2023-12-04T13:34:33;2.20;98.70
45807;DHT22;31507;51.494;7.518;2023-12-04T13:36:59;2.20;99.90
45807;DHT22;31507;51.494;7.518;2023-12-04T13:39:24;2.20;99.20
45807;DHT22;31507;51.494;7.518;2023-12-04T13:42:04;2.10;99.90
45807;DHT22;31507;51.494;7.518;2023-12-04T13:44:48;2.10;99.90
45807;DHT22;31507;51.494;7.518;2023-12-04T13:47:14;2.10;99.90
45807;DHT22;31507;51.494;7.518;2023-12-04T13:49:41;2.10;99.90
45807;DHT22;31507;51.494;7.518;2023-12-04T13:52:06;2.00;99.90
45807;DHT22;31507;51.494;7.518;2023-12-04T13:54:33;2.10;99.90
45807;DHT22;31507;51.494;7.518;2023-12-04T13:57:19;2.10;99.90
45807;DHT22;31507;51.494;7.518;2023-12-04T14:00:01;2.10;99.90
45807;DHT22;31507;51.494;7.518;2023-12-04T14:02:26;2.10;99.90
45807;DHT22;31507;51.494;7.518;2023-12-04T14:04:52;2.10;99.90
45807;DHT22;31507;51.494;7.518;2023-12-04T14:07:18;2.10;99.90
45807;DHT22;31507;51.494;7.518;2023-12-04T14:09:44;2.10;99.90
45807;DHT22;31507;51.494;7.518;2023-12-04T14:12:15;2.10;99.90
45807;DHT22;31507;51.494;7.518;2023-12-04T14:14:41;2.20;99.90
45807;DHT22;31507;51.494;7.518;2023-12-04T14:17:07;2.20;99.90
45807;DHT22;31507;51.494;7.518;2023-12-04T14:19:34;2.20;99.90
45807;DHT22;31507;51.494;7.518;2023-12-04T14:22:00;2.20;99.90
45807;DHT22;31507;51.494;7.518;2023-12-04T14:24:25;2.20;99.90
45807;DHT22;31507;51.494;7.518;2023-12-04T14:26:51;2.10;99.90
45807;DHT22;31507;51.494;7.518;2023-12-04T14:29:18;2.20;99.90
45807;DHT22;31507;51.494;7.518;2023-12-04T14:31:44;2.20;99.90
45807;DHT22;31507;51.494;7.518;2023-12-04T14:34:10;2.20;99.90
45807;DHT22;31507;51.494;7.518;2023-12-04T14:36:35;2.20;99.90
45807;DHT22;31507;51.494;7.518;2023-12-04T14:39:02;2.20;99.90
45807;DHT22;31507;51.494;7.518;2023-12-04T14:41:28;2.20;99.90
45807;DHT22;31507;51.494;7.518;2023-12-04T14:43:54;2.20;99.90
45807;DHT22;31507;51.494;7.518;2023-12-04T14:46:19;2.20;99.90
45807;DHT22;31507;51.494;7.518;2023-12-04T14:48:45;2.20;99.90
45807;DHT22;31507;51.494;7.518;2023-12-04T14:51:11;2.10;99.90
45807;DHT22;31507;51.494;7.518;2023-12-04T14:53:38;2.20;99.90
45807;DHT22;31507;51.494;7.518;2023-12-04T14:56:11;2.10;99.90
45807;DHT22;31507;51.494;7.518;2023-12-04T14:58:52;2.10;99.90
45807;DHT22;31507;51.494;7.518;2023-12-04T15:01:38;2.10;99.90
45807;DHT22;31507;51.494;7.518;2023-12-04T15:04:18;2.10;99.90
45807;DHT22;31507;51.494;7.518;2023-12-04T15:07:04;2.10;99.90
45807;DHT22;31507;51.494;7.518;2023-12-04T15:09:48;2.10;99.90
45807;DHT22;31507;51.494;7.518;2023-12-04T15:12:22;2.20;99.90
45807;DHT22;31507;51.494;7.518;2023-12-04T15:14:59;2.20;99.90
45807;DHT22;31507;51.494;7.518;2023-12-04T15:17:59;2.20;99.90
45807;DHT22;31507;51.494;7.518;2023-12-04T15:20:43;2.20;99.90
45807;DHT22;31507;51.494;7.518;2023-12-04T15:23:10;2.10;99.90
45807;DHT22;31507;51.494;7.518;2023-12-04T15:25:35;2.10;99.90
45807;DHT22;31507;51.494;7.518;2023-12-04T15:28:01;2.10;99.90
45807;DHT22;31507;51.494;7.518;2023-12-04T15:30:33;2.10;99.90
45807;DHT22;31507;51.494;7.518;2023-12-04T15:32:59;2.10;99.90
45807;DHT22;31507;51.494;7.518;2023-12-04T15:35:24;2.10;99.90
45807;DHT22;31507;51.494;7.518;2023-12-04T15:37:50;2.10;99.90
45807;DHT22;31507;51.494;7.518;2023-12-04T15:40:15;2.00;99.90
45807;DHT22;31507;51.494;7.518;2023-12-04T15:42:41;2.10;99.90
45807;DHT22;31507;51.494;7.518;2023-12-04T15:45:07;2.10;99.90
45807;DHT22;31507;51.494;7.518;2023-12-04T15:47:33;2.10;99.90
45807;DHT22;31507;51.494;7.518;2023-12-04T15:49:58;2.10;99.90
45807;DHT22;31507;51.494;7.518;2023-12-04T15:52:24;2.10;99.90
45807;DHT22;31507;51.494;7.518;2023-12-04T15:54:51;2.10;99.90